createdAt,value
2019-01-04T00:01:00.417Z,99925.74
2019-01-04T00:02:07.420Z,99918.08
2019-01-04T00:03:10.867Z,99924.68
2019-01-04T00:04:14.250Z,99922.22
2019-01-04T00:05:17.220Z,99922.22
2019-01-04T00:06:26.210Z,99928.11
2019-01-04T00:07:29.211Z,99917.41
2019-01-04T00:08:32.128Z,99917.41
2019-01-04T00:09:35.122Z,99915.22
2019-01-04T00:10:38.103Z,99915.44
2019-01-04T00:11:41.274Z,99925.53
2019-01-04T00:12:47.559Z,99925.53
2019-01-04T00:13:50.910Z,99922.66
2019-01-04T00:14:54.673Z,99922.66
2019-01-04T00:15:58.110Z,99902.52
2019-01-04T00:17:01.034Z,99902.52
2019-01-04T00:18:04.990Z,99914.02
2019-01-04T00:19:10.651Z,99920.30
2019-01-04T00:20:13.799Z,99918.43
2019-01-04T00:21:16.879Z,99913.70
2019-01-04T00:22:19.884Z,99913.30
2019-01-04T00:23:25.231Z,99913.30
2019-01-04T00:24:28.151Z,99910.36
2019-01-04T00:25:31.359Z,99908.08
2019-01-04T00:26:34.344Z,99908.08
2019-01-04T00:27:37.274Z,99905.75
2019-01-04T00:28:40.186Z,99904.20
2019-01-04T00:29:43.131Z,99902.15
2019-01-04T00:30:46.016Z,99907.38
2019-01-04T00:31:50.449Z,99912.86
2019-01-04T00:32:53.422Z,99912.86
2019-01-04T00:33:56.341Z,99913.08
2019-01-04T00:34:59.283Z,99907.63
2019-01-04T00:36:02.213Z,99907.63
2019-01-04T00:37:05.178Z,99908.25
2019-01-04T00:38:08.398Z,99900.22
2019-01-04T00:39:11.286Z,99900.22
2019-01-04T00:40:14.201Z,99905.94
2019-01-04T00:41:17.252Z,99905.94
2019-01-04T00:42:20.187Z,99907.86
2019-01-04T00:43:23.088Z,99905.94
2019-01-04T00:44:26.324Z,99908.93
2019-01-04T00:45:29.785Z,99908.93
2019-01-04T00:46:32.758Z,99909.55
2019-01-04T00:47:35.662Z,99910.84
2019-01-04T00:48:41.650Z,99909.01
2019-01-04T00:49:44.558Z,99912.27
2019-01-04T00:50:47.881Z,99906.78
2019-01-04T00:51:50.798Z,99906.78
2019-01-04T00:52:53.711Z,99907.31
2019-01-04T00:53:58.142Z,99914.01
2019-01-04T00:55:01.505Z,99914.01
2019-01-04T00:56:05.607Z,99910.14
2019-01-04T00:57:08.895Z,99907.09
2019-01-04T00:58:12.957Z,99905.36
2019-01-04T00:59:15.856Z,99908.66
2019-01-04T01:00:18.769Z,99910.53
2019-01-04T01:01:21.682Z,99910.53
2019-01-04T01:02:24.777Z,99910.31
2019-01-04T01:03:30.023Z,99908.44
2019-01-04T01:04:33.015Z,99911.65
2019-01-04T01:05:35.950Z,99908.03
2019-01-04T01:06:38.984Z,99907.41
2019-01-04T01:07:41.972Z,99907.41
2019-01-04T01:08:44.899Z,99921.11
2019-01-04T01:09:48.565Z,99910.27
2019-01-04T01:10:51.497Z,99913.48
2019-01-04T01:11:54.532Z,99913.48
2019-01-04T01:12:57.559Z,99918.56
2019-01-04T01:14:00.455Z,99916.92
2019-01-04T01:15:03.807Z,99911.38
2019-01-04T01:16:07.000Z,99911.46
2019-01-04T01:17:10.401Z,99916.59
2019-01-04T01:18:13.327Z,99914.64
2019-01-04T01:19:16.249Z,99914.64
2019-01-04T01:20:19.608Z,99920.48
2019-01-04T01:21:22.551Z,99920.34
2019-01-04T01:22:27.065Z,99921.05
2019-01-04T01:23:30.112Z,99918.46
2019-01-04T01:24:33.023Z,99921.67
2019-01-04T01:25:36.009Z,99924.98
2019-01-04T01:26:41.195Z,99927.34
2019-01-04T01:27:44.090Z,99934.13
2019-01-04T01:28:47.359Z,99933.63
2019-01-04T01:29:50.311Z,99936.00
2019-01-04T01:30:53.208Z,99931.50
2019-01-04T01:31:57.209Z,99933.95
2019-01-04T01:33:00.192Z,99923.77
2019-01-04T01:34:03.165Z,99930.42
2019-01-04T01:35:09.406Z,99930.42
2019-01-04T01:36:17.340Z,99925.20
2019-01-04T01:37:20.258Z,99925.20
2019-01-04T01:38:23.274Z,99931.89
2019-01-04T01:39:26.151Z,99932.70
2019-01-04T01:40:29.052Z,99932.70
2019-01-04T01:41:32.287Z,99932.37
2019-01-04T01:42:35.172Z,99936.62
2019-01-04T01:43:38.149Z,99930.87
2019-01-04T01:44:41.603Z,99934.27
2019-01-04T01:45:44.521Z,99931.72
2019-01-04T01:46:47.456Z,99948.27
2019-01-04T01:47:50.809Z,99944.25
2019-01-04T01:48:54.115Z,99944.45
2019-01-04T01:49:57.035Z,99947.25
2019-01-04T01:51:01.115Z,99948.18
2019-01-04T01:52:04.084Z,99948.18
2019-01-04T01:53:10.792Z,99941.77
2019-01-04T01:54:17.070Z,99932.70
2019-01-04T01:55:26.129Z,99931.89
2019-01-04T01:56:29.075Z,99931.89
2019-01-04T01:57:32.003Z,99936.23
2019-01-04T01:58:34.893Z,99939.84
2019-01-04T01:59:38.059Z,99939.84
2019-01-04T02:00:42.741Z,99936.14
2019-01-04T02:01:45.653Z,99945.11
2019-01-04T02:02:48.694Z,99938.06
2019-01-04T02:03:51.610Z,99942.92
2019-01-04T02:04:54.648Z,99942.92
2019-01-04T02:05:57.549Z,99942.64
2019-01-04T02:07:03.831Z,99936.36
2019-01-04T02:08:06.815Z,99940.25
2019-01-04T02:09:11.295Z,99937.48
2019-01-04T02:10:14.303Z,99934.18
2019-01-04T02:11:17.215Z,99935.42
2019-01-04T02:12:20.155Z,99941.80
2019-01-04T02:13:23.462Z,99944.08
2019-01-04T02:14:26.383Z,99943.95
2019-01-04T02:15:29.396Z,99943.95
2019-01-04T02:16:32.304Z,99946.89
2019-01-04T02:17:35.229Z,99946.89
2019-01-04T02:18:38.214Z,99945.23
2019-01-04T02:19:44.107Z,99950.38
2019-01-04T02:20:49.319Z,99946.27
2019-01-04T02:21:52.279Z,99946.45
2019-01-04T02:22:57.367Z,99946.45
2019-01-04T02:24:00.355Z,99943.90
2019-01-04T02:25:03.327Z,99949.80
2019-01-04T02:26:10.006Z,99941.41
2019-01-04T02:27:12.927Z,99945.15
2019-01-04T02:28:15.847Z,99945.15
2019-01-04T02:29:18.861Z,99945.15
2019-01-04T02:30:22.175Z,99938.98
2019-01-04T02:31:25.081Z,99938.98
2019-01-04T02:32:28.318Z,99947.56
2019-01-04T02:33:31.251Z,99945.73
2019-01-04T02:34:34.221Z,99939.48
2019-01-04T02:35:37.155Z,99948.59
2019-01-04T02:36:42.816Z,99952.06
2019-01-04T02:37:47.869Z,99941.66
2019-01-04T02:38:51.122Z,99948.00
2019-01-04T02:39:54.140Z,99938.00
2019-01-04T02:40:57.035Z,99946.62
2019-01-04T02:42:00.123Z,99939.92
2019-01-04T02:43:04.535Z,99943.94
2019-01-04T02:44:07.443Z,99941.27
2019-01-04T02:45:10.405Z,99941.27
2019-01-04T02:46:13.397Z,99940.77
2019-01-04T02:47:16.270Z,99947.46
2019-01-04T02:48:19.252Z,99943.84
2019-01-04T02:49:22.165Z,99943.31
2019-01-04T02:50:27.627Z,99943.40
2019-01-04T02:51:32.042Z,99943.40
2019-01-04T02:52:34.935Z,99948.84
2019-01-04T02:53:37.854Z,99941.45
2019-01-04T02:54:40.752Z,99933.89
2019-01-04T02:55:43.699Z,99944.70
2019-01-04T02:56:46.584Z,99942.60
2019-01-04T02:57:49.837Z,99942.60
2019-01-04T02:58:52.992Z,99944.16
2019-01-04T02:59:55.891Z,99948.95
2019-01-04T03:00:58.793Z,99948.95
2019-01-04T03:02:01.780Z,99950.20
2019-01-04T03:03:04.683Z,99950.20
2019-01-04T03:04:07.930Z,99938.15
2019-01-04T03:05:10.847Z,99933.15
2019-01-04T03:06:13.783Z,99940.87
2019-01-04T03:07:16.687Z,99928.91
2019-01-04T03:08:19.599Z,99929.89
2019-01-04T03:09:22.596Z,99928.55
2019-01-04T03:10:25.770Z,99922.48
2019-01-04T03:11:28.676Z,99928.42
2019-01-04T03:12:31.673Z,99931.64
2019-01-04T03:13:34.609Z,99932.30
2019-01-04T03:14:37.515Z,99932.30
2019-01-04T03:15:40.430Z,99931.36
2019-01-04T03:16:43.684Z,99931.14
2019-01-04T03:17:46.683Z,99928.47
2019-01-04T03:18:51.781Z,99925.30
2019-01-04T03:19:54.698Z,99925.30
2019-01-04T03:21:06.211Z,99925.61
2019-01-04T03:22:09.117Z,99927.22
2019-01-04T03:23:12.396Z,99926.14
2019-01-04T03:24:15.278Z,99924.17
2019-01-04T03:25:18.198Z,99924.17
2019-01-04T03:26:21.098Z,99925.84
2019-01-04T03:27:24.109Z,99923.38
2019-01-04T03:28:27.115Z,99928.20
2019-01-04T03:29:30.388Z,99926.01
2019-01-04T03:30:33.274Z,99926.08
2019-01-04T03:31:36.206Z,99930.27
2019-01-04T03:32:39.189Z,99936.70
2019-01-04T03:33:42.093Z,99932.16
2019-01-04T03:34:45.002Z,99921.58
2019-01-04T03:35:48.314Z,99921.58
2019-01-04T03:36:51.788Z,99921.84
2019-01-04T03:37:55.176Z,99924.91
2019-01-04T03:38:58.202Z,99914.58
2019-01-04T03:40:01.622Z,99914.58
2019-01-04T03:41:04.964Z,99914.31
2019-01-04T03:42:08.246Z,99909.09
2019-01-04T03:43:11.156Z,99916.29
2019-01-04T03:44:14.606Z,99912.41
2019-01-04T03:45:17.546Z,99915.39
2019-01-04T03:46:20.456Z,99910.22
2019-01-04T03:47:23.446Z,99916.69
2019-01-04T03:48:27.040Z,99916.69
2019-01-04T03:49:30.015Z,99913.61
2019-01-04T03:50:32.920Z,99919.27
2019-01-04T03:51:36.459Z,99919.27
2019-01-04T03:52:39.353Z,99912.89
2019-01-04T03:53:42.677Z,99915.13
2019-01-04T03:54:45.972Z,99915.21
2019-01-04T03:55:48.907Z,99915.21
2019-01-04T03:56:52.034Z,99915.21
2019-01-04T03:57:55.057Z,99908.30
2019-01-04T03:58:58.507Z,99906.45
2019-01-04T04:00:01.424Z,99906.86
2019-01-04T04:01:05.813Z,99908.78
2019-01-04T04:02:09.108Z,99908.78
2019-01-04T04:03:12.028Z,99911.05
2019-01-04T04:04:14.968Z,99911.77
2019-01-04T04:05:17.901Z,99911.77
2019-01-04T04:06:20.825Z,99905.38
2019-01-04T04:07:24.099Z,99903.23
2019-01-04T04:08:27.037Z,99904.27
2019-01-04T04:09:30.031Z,99898.28
2019-01-04T04:10:32.962Z,99898.28
2019-01-04T04:11:35.861Z,99902.22
2019-01-04T04:12:38.855Z,99902.22
2019-01-04T04:13:42.055Z,99899.32
2019-01-04T04:14:44.951Z,99896.55
2019-01-04T04:15:48.266Z,99901.65
2019-01-04T04:16:51.163Z,99902.41
2019-01-04T04:17:54.139Z,99902.41
2019-01-04T04:18:57.037Z,99899.98
2019-01-04T04:20:00.369Z,99900.48
2019-01-04T04:21:03.362Z,99907.08
2019-01-04T04:22:08.270Z,99907.08
2019-01-04T04:23:11.233Z,99908.66
2019-01-04T04:24:14.155Z,99908.66
2019-01-04T04:25:17.117Z,99913.30
2019-01-04T04:26:21.836Z,99915.71
2019-01-04T04:27:24.938Z,99914.99
2019-01-04T04:28:27.830Z,99924.68
2019-01-04T04:29:30.715Z,99920.17
2019-01-04T04:30:33.629Z,99920.39
2019-01-04T04:31:36.892Z,99925.84
2019-01-04T04:32:40.669Z,99930.08
2019-01-04T04:33:44.142Z,99926.28
2019-01-04T04:34:47.189Z,99928.20
2019-01-04T04:35:50.135Z,99928.20
2019-01-04T04:36:53.016Z,99920.31
2019-01-04T04:37:56.029Z,99922.21
2019-01-04T04:38:59.202Z,99931.23
2019-01-04T04:40:02.140Z,99934.94
2019-01-04T04:41:05.026Z,99926.91
2019-01-04T04:42:07.958Z,99926.91
2019-01-04T04:43:10.924Z,99926.06
2019-01-04T04:44:13.860Z,99931.64
2019-01-04T04:45:17.224Z,99931.64
2019-01-04T04:46:20.123Z,99925.97
2019-01-04T04:47:23.102Z,99925.92
2019-01-04T04:48:26.114Z,99928.88
2019-01-04T04:49:29.434Z,99925.34
2019-01-04T04:50:32.359Z,99923.59
2019-01-04T04:51:36.137Z,99919.67
2019-01-04T04:52:39.063Z,99919.67
2019-01-04T04:53:42.099Z,99918.55
2019-01-04T04:54:45.466Z,99916.92
2019-01-04T04:55:48.393Z,99903.98
2019-01-04T04:56:51.894Z,99909.11
2019-01-04T04:57:55.601Z,99909.11
2019-01-04T04:58:59.007Z,99904.91
2019-01-04T05:00:02.332Z,99904.91
2019-01-04T05:01:05.266Z,99903.98
2019-01-04T05:02:08.154Z,99903.98
2019-01-04T05:03:11.400Z,99903.75
2019-01-04T05:04:14.445Z,99902.41
2019-01-04T05:05:18.531Z,99908.88
2019-01-04T05:06:21.492Z,99900.23
2019-01-04T05:07:24.502Z,99910.63
2019-01-04T05:08:27.447Z,99911.78
2019-01-04T05:09:30.751Z,99908.27
2019-01-04T05:10:33.749Z,99908.27
2019-01-04T05:11:36.665Z,99903.71
2019-01-04T05:12:39.623Z,99904.91
2019-01-04T05:13:44.346Z,99904.91
2019-01-04T05:14:47.381Z,99902.41
2019-01-04T05:15:50.790Z,99898.48
2019-01-04T05:16:54.081Z,99900.63
2019-01-04T05:17:56.974Z,99891.78
2019-01-04T05:18:59.925Z,99880.33
2019-01-04T05:20:03.349Z,99894.06
2019-01-04T05:21:06.742Z,99896.20
2019-01-04T05:22:11.279Z,99899.59
2019-01-04T05:23:14.260Z,99892.67
2019-01-04T05:24:17.221Z,99892.67
2019-01-04T05:25:20.735Z,99901.60
2019-01-04T05:26:23.637Z,99904.77
2019-01-04T05:27:26.676Z,99906.72
2019-01-04T05:28:29.922Z,99906.72
2019-01-04T05:29:32.787Z,99900.02
2019-01-04T05:30:35.806Z,99900.02
2019-01-04T05:31:38.697Z,99907.33
2019-01-04T05:32:41.587Z,99903.32
2019-01-04T05:33:44.498Z,99903.32
2019-01-04T05:34:47.924Z,99901.31
2019-01-04T05:35:50.859Z,99903.77
2019-01-04T05:36:53.817Z,99903.77
2019-01-04T05:37:56.726Z,99897.99
2019-01-04T05:38:59.638Z,99901.29
2019-01-04T05:40:02.618Z,99902.42
2019-01-04T05:41:06.411Z,99902.42
2019-01-04T05:42:09.725Z,99901.23
2019-01-04T05:43:12.642Z,99897.73
2019-01-04T05:44:15.541Z,99895.56
2019-01-04T05:45:18.422Z,99888.28
2019-01-04T05:46:21.378Z,99886.41
2019-01-04T05:47:24.575Z,99886.41
2019-01-04T05:48:27.493Z,99893.63
2019-01-04T05:49:32.005Z,99888.50
2019-01-04T05:50:34.895Z,99888.78
2019-01-04T05:51:37.906Z,99888.78
2019-01-04T05:52:40.786Z,99890.02
2019-01-04T05:53:44.114Z,99890.02
2019-01-04T05:54:47.022Z,99891.77
2019-01-04T05:55:49.910Z,99894.09
2019-01-04T05:56:52.911Z,99894.09
2019-01-04T05:57:55.840Z,99895.58
2019-01-04T05:58:59.241Z,99889.67
2019-01-04T06:00:02.544Z,99891.81
2019-01-04T06:01:05.436Z,99890.88
2019-01-04T06:02:09.245Z,99895.56
2019-01-04T06:03:12.233Z,99901.53
2019-01-04T06:04:15.201Z,99899.16
2019-01-04T06:05:20.925Z,99899.30
2019-01-04T06:06:24.202Z,99904.91
2019-01-04T06:07:27.169Z,99901.23
2019-01-04T06:08:30.156Z,99901.23
2019-01-04T06:09:33.079Z,99898.80
2019-01-04T06:10:36.033Z,99897.55
2019-01-04T06:11:39.389Z,99900.87
2019-01-04T06:12:42.772Z,99902.83
2019-01-04T06:13:45.738Z,99893.59
2019-01-04T06:14:48.637Z,99893.61
2019-01-04T06:15:51.683Z,99893.61
2019-01-04T06:16:55.678Z,99886.72
2019-01-04T06:17:58.561Z,99882.40
2019-01-04T06:19:01.854Z,99871.13
2019-01-04T06:20:04.781Z,99866.63
2019-01-04T06:21:09.048Z,99868.83
2019-01-04T06:22:11.974Z,99866.60
2019-01-04T06:23:14.905Z,99874.13
2019-01-04T06:24:17.811Z,99877.03
2019-01-04T06:25:21.013Z,99874.89
2019-01-04T06:26:23.993Z,99874.89
2019-01-04T06:27:27.725Z,99866.16
2019-01-04T06:28:30.658Z,99861.02
2019-01-04T06:29:33.662Z,99861.11
2019-01-04T06:43:46.736Z,99865.66
2019-01-04T06:44:49.633Z,99862.14
2019-01-04T06:45:53.019Z,99862.14
2019-01-04T06:46:55.903Z,99863.78
2019-01-04T06:47:58.895Z,99864.41
2019-01-04T06:49:03.402Z,99858.56
2019-01-04T06:50:06.796Z,99854.95
2019-01-04T06:51:10.118Z,99864.67
2019-01-04T06:52:13.101Z,99867.44
2019-01-04T06:53:16.073Z,99867.44
2019-01-04T06:54:18.973Z,99860.97
2019-01-04T06:55:22.187Z,99863.15
2019-01-04T06:56:25.123Z,99863.15
2019-01-04T06:57:28.029Z,99854.44
2019-01-04T06:58:31.060Z,99854.41
2019-01-04T06:59:36.801Z,99852.62
2019-01-04T07:00:39.777Z,99846.23
2019-01-04T07:01:45.391Z,99853.73
2019-01-04T07:02:48.712Z,99858.59
2019-01-04T07:03:51.615Z,99860.58
2019-01-04T07:04:54.558Z,99862.81
2019-01-04T07:05:57.536Z,99864.15
2019-01-04T07:07:00.458Z,99864.15
2019-01-04T07:08:03.807Z,99870.12
2019-01-04T07:09:06.846Z,99870.12
2019-01-04T07:10:11.880Z,99873.13
2019-01-04T07:11:15.001Z,99879.75
2019-01-04T07:12:18.073Z,99879.83
2019-01-04T07:13:21.121Z,99879.83
2019-01-04T07:14:24.380Z,99881.09
2019-01-04T07:15:27.264Z,99874.92
2019-01-04T07:16:30.196Z,99872.97
2019-01-04T07:17:33.101Z,99879.36
2019-01-04T07:18:36.516Z,99880.03
2019-01-04T07:19:39.461Z,99885.08
2019-01-04T07:20:42.649Z,99884.05
2019-01-04T07:21:45.699Z,99889.68
2019-01-04T07:22:48.726Z,99886.28
2019-01-04T07:23:51.619Z,99886.28
2019-01-04T07:24:54.549Z,99886.72
2019-01-04T07:25:58.441Z,99880.11
2019-01-04T07:27:01.794Z,99880.11
2019-01-04T07:28:04.752Z,99884.63
2019-01-04T07:29:07.698Z,99875.39
2019-01-04T07:30:12.884Z,99878.77
2019-01-04T07:31:15.363Z,99873.11
2019-01-04T07:32:18.265Z,99879.50
2019-01-04T07:33:27.249Z,99876.09
2019-01-04T07:34:30.263Z,99876.90
2019-01-04T07:35:33.332Z,99879.80
2019-01-04T07:36:36.371Z,99887.00
2019-01-04T07:37:39.663Z,99877.59
2019-01-04T07:38:42.592Z,99877.59
2019-01-04T07:39:46.368Z,99875.87
2019-01-04T07:40:49.768Z,99874.92
2019-01-04T07:41:52.831Z,99868.30
2019-01-04T07:42:55.750Z,99878.02
2019-01-04T07:43:58.702Z,99878.02
2019-01-04T07:45:01.999Z,99868.33
2019-01-04T07:46:04.930Z,99877.06
2019-01-04T07:47:07.939Z,99875.03
2019-01-04T07:48:10.862Z,99868.78
2019-01-04T07:49:15.558Z,99879.97
2019-01-04T07:50:18.586Z,99876.34
2019-01-04T07:51:23.211Z,99882.01
2019-01-04T07:52:26.221Z,99882.01
2019-01-04T07:53:29.168Z,99883.70
2019-01-04T07:54:32.615Z,99883.70
2019-01-04T07:55:36.308Z,99883.34
2019-01-04T07:56:40.098Z,99899.22
2019-01-04T07:57:43.589Z,99899.22
2019-01-04T07:58:48.104Z,99900.22
2019-01-04T07:59:51.130Z,99899.08
2019-01-04T08:00:54.146Z,99899.08
2019-01-04T08:01:57.065Z,99897.16
2019-01-04T08:03:00.435Z,99897.38
2019-01-04T08:04:03.459Z,99897.38
2019-01-04T08:05:09.500Z,99890.92
2019-01-04T08:06:12.438Z,99885.76
2019-01-04T08:07:15.455Z,99889.70
2019-01-04T08:08:18.510Z,99891.34
2019-01-04T08:09:21.876Z,99892.83
2019-01-04T08:10:24.955Z,99888.27
2019-01-04T08:11:28.006Z,99887.39
2019-01-04T08:12:30.929Z,99873.45
2019-01-04T08:13:34.405Z,99876.05
2019-01-04T08:14:37.577Z,99866.67
2019-01-04T08:15:40.852Z,99862.58
2019-01-04T08:16:43.878Z,99862.58
2019-01-04T08:17:46.783Z,99864.22
2019-01-04T08:18:49.714Z,99873.27
2019-01-04T08:19:55.079Z,99880.63
2019-01-04T08:21:00.249Z,99880.63
2019-01-04T08:22:03.228Z,99889.78
2019-01-04T08:23:07.380Z,99889.86
2019-01-04T08:24:10.372Z,99884.08
2019-01-04T08:25:13.709Z,99885.76
2019-01-04T08:26:16.724Z,99894.41
2019-01-04T08:27:19.801Z,99895.67
2019-01-04T08:28:23.259Z,99891.89
2019-01-04T08:29:26.774Z,99891.89
2019-01-04T08:30:30.245Z,99894.42
2019-01-04T08:31:34.099Z,99896.45
2019-01-04T08:32:37.572Z,99885.64
2019-01-04T08:33:40.997Z,99897.95
2019-01-04T08:34:44.946Z,99897.95
2019-01-04T08:35:47.901Z,99893.39
2019-01-04T08:36:50.957Z,99896.38
2019-01-04T08:37:53.935Z,99891.97
2019-01-04T08:38:56.879Z,99887.45
2019-01-04T08:39:59.953Z,99894.16
2019-01-04T08:41:03.371Z,99884.17
2019-01-04T08:42:06.256Z,99892.02
2019-01-04T08:43:21.168Z,99883.52
2019-01-04T08:44:26.343Z,99883.52
2019-01-04T08:45:29.299Z,99880.23
2019-01-04T08:46:32.228Z,99878.69
2019-01-04T08:47:35.447Z,99873.52
2019-01-04T08:48:38.434Z,99872.88
2019-01-04T08:49:41.804Z,99874.52
2019-01-04T08:50:44.745Z,99874.83
2019-01-04T08:51:47.745Z,99874.83
2019-01-04T08:52:54.211Z,99872.14
2019-01-04T08:54:02.844Z,99869.50
2019-01-04T08:55:06.820Z,99860.35
2019-01-04T08:56:11.410Z,99860.35
2019-01-04T08:57:14.485Z,99852.19
2019-01-04T08:58:19.010Z,99842.73
2019-01-04T08:59:25.397Z,99842.73
2019-01-04T09:00:31.546Z,99851.23
2019-01-04T09:01:36.735Z,99842.73
2019-01-04T09:02:40.915Z,99843.39
2019-01-04T09:03:44.646Z,99841.23
2019-01-04T09:04:48.019Z,99835.11
2019-01-04T09:05:51.032Z,99840.55
2019-01-04T09:06:53.936Z,99841.39
2019-01-04T09:07:57.149Z,99842.27
2019-01-04T09:09:00.580Z,99842.27
2019-01-04T09:10:11.336Z,99832.23
2019-01-04T09:11:15.210Z,99838.17
2019-01-04T09:12:18.339Z,99838.17
2019-01-04T09:13:21.383Z,99835.80
2019-01-04T09:14:25.475Z,99833.87
2019-01-04T09:15:29.212Z,99835.64
2019-01-04T09:16:32.779Z,99831.27
2019-01-04T09:17:36.185Z,99831.27
2019-01-04T09:18:42.814Z,99842.15
2019-01-04T09:19:48.449Z,99842.15
2019-01-04T09:20:52.963Z,99832.84
2019-01-04T09:21:57.774Z,99820.39
2019-01-04T09:23:00.713Z,99826.80
2019-01-04T09:24:10.796Z,99828.59
2019-01-04T09:25:13.810Z,99816.38
2019-01-04T09:26:16.785Z,99818.37
2019-01-04T09:27:20.369Z,99813.97
2019-01-04T09:28:23.826Z,99805.55
2019-01-04T09:29:27.226Z,99818.22
2019-01-04T09:30:33.845Z,99817.56
2019-01-04T09:31:37.303Z,99817.56
2019-01-04T09:32:45.050Z,99808.25
2019-01-04T09:33:46.128Z,99819.41
2019-01-04T09:34:49.846Z,99809.67
2019-01-04T09:35:59.652Z,99809.52
2019-01-04T09:37:03.359Z,99791.85
2019-01-04T09:38:07.159Z,99800.78
2019-01-04T09:39:10.822Z,99800.78
2019-01-04T09:40:16.270Z,99803.92
2019-01-04T09:41:25.506Z,99794.55
2019-01-04T09:42:29.865Z,99797.29
2019-01-04T09:43:33.325Z,99793.92
2019-01-04T09:44:36.900Z,99793.92
2019-01-04T09:45:40.338Z,99794.38
2019-01-04T09:46:43.282Z,99794.69
2019-01-04T09:47:46.973Z,99802.30
2019-01-04T09:48:50.666Z,99802.30
2019-01-04T09:49:53.825Z,99794.39
2019-01-04T09:50:57.375Z,99789.91
2019-01-04T09:52:00.573Z,99799.76
2019-01-04T09:53:06.892Z,99787.69
2019-01-04T09:54:09.974Z,99783.12
2019-01-04T09:55:12.932Z,99785.08
2019-01-04T09:56:18.907Z,99788.64
2019-01-04T09:57:23.579Z,99783.27
2019-01-04T09:58:29.410Z,99770.90
2019-01-04T09:59:32.704Z,99774.48
2019-01-04T10:00:37.976Z,99768.16
2019-01-04T10:01:41.044Z,99772.01
2019-01-04T10:02:44.003Z,99766.28
2019-01-04T10:03:47.983Z,99765.41
2019-01-04T10:04:50.920Z,99765.41
2019-01-04T10:05:58.229Z,99760.11
2019-01-04T10:07:01.084Z,99762.93
2019-01-04T10:08:04.341Z,99759.88
2019-01-04T10:09:07.281Z,99756.66
2019-01-04T10:10:10.159Z,99756.66
2019-01-04T10:11:15.823Z,99752.77
2019-01-04T10:12:19.007Z,99750.39
2019-01-04T10:13:22.010Z,99751.66
2019-01-04T10:14:28.446Z,99753.54
2019-01-04T10:15:31.421Z,99753.54
2019-01-04T10:16:41.206Z,99745.28
2019-01-04T10:17:46.353Z,99747.57
2019-01-04T10:18:54.256Z,99746.46
2019-01-04T10:19:57.146Z,99732.38
2019-01-04T10:21:00.123Z,99734.96
2019-01-04T10:22:07.961Z,99724.46
2019-01-04T10:23:12.429Z,99737.14
2019-01-04T10:24:15.761Z,99727.81
2019-01-04T10:25:18.682Z,99737.04
2019-01-04T10:26:22.057Z,99732.34
2019-01-04T10:27:26.611Z,99738.08
2019-01-04T10:28:29.583Z,99735.40
2019-01-04T10:29:33.074Z,99729.46
2019-01-04T10:30:36.260Z,99729.46
2019-01-04T10:31:39.273Z,99732.78
2019-01-04T10:32:45.253Z,99730.47
2019-01-04T10:33:48.239Z,99726.44
2019-01-04T10:34:51.175Z,99722.05
2019-01-04T10:35:54.183Z,99728.59
2019-01-04T10:37:00.562Z,99728.09
2019-01-04T10:38:05.981Z,99728.09
2019-01-04T10:39:09.470Z,99711.02
2019-01-04T10:40:15.480Z,99711.02
2019-01-04T10:41:18.507Z,99697.53
2019-01-04T10:42:21.901Z,99697.53
2019-01-04T10:43:24.869Z,99711.75
2019-01-04T10:44:27.858Z,99707.86
2019-01-04T10:45:30.766Z,99711.45
2019-01-04T10:46:33.671Z,99705.03
2019-01-04T10:47:36.610Z,99705.03
2019-01-04T10:48:40.077Z,99702.98
2019-01-04T10:49:43.009Z,99695.53
2019-01-04T10:50:51.968Z,99693.09
2019-01-04T10:51:54.884Z,99701.77
2019-01-04T10:53:02.342Z,99698.11
2019-01-04T10:54:05.704Z,99693.03
2019-01-04T10:55:08.680Z,99696.09
2019-01-04T10:56:11.633Z,99696.09
2019-01-04T10:57:21.865Z,99697.94
2019-01-04T10:58:28.726Z,99690.72
2019-01-04T10:59:31.673Z,99682.96
2019-01-04T11:00:41.339Z,99669.75
2019-01-04T11:01:44.421Z,99669.75
2019-01-04T11:02:47.320Z,99678.76
2019-01-04T11:03:53.936Z,99678.76
2019-01-04T11:04:57.944Z,99678.76
2019-01-04T11:06:01.638Z,99683.95
2019-01-04T11:07:05.125Z,99685.91
2019-01-04T11:08:08.659Z,99685.91
2019-01-04T11:09:25.865Z,99681.45
2019-01-04T11:10:33.027Z,99677.42
2019-01-04T11:11:35.137Z,99677.42
2019-01-04T11:12:38.057Z,99683.95
2019-01-04T11:13:44.335Z,99686.19
2019-01-04T11:14:47.304Z,99673.93
2019-01-04T11:15:50.261Z,99686.25
2019-01-04T11:16:58.341Z,99678.70
2019-01-04T11:18:09.787Z,99679.54
2019-01-04T11:19:07.436Z,99680.11
2019-01-04T11:20:10.388Z,99681.75
2019-01-04T11:21:13.308Z,99682.49
2019-01-04T11:22:16.376Z,99683.63
2019-01-04T11:23:19.289Z,99675.21
2019-01-04T11:24:25.056Z,99679.24
2019-01-04T11:25:28.306Z,99665.99
2019-01-04T11:26:31.679Z,99677.95
2019-01-04T11:27:35.133Z,99677.95
2019-01-04T11:28:38.029Z,99672.65
2019-01-04T11:29:41.419Z,99672.65
2019-01-04T11:42:50.629Z,99639.08
2019-01-04T11:43:56.048Z,99643.98
2019-01-04T11:45:01.963Z,99643.98
2019-01-04T11:46:04.969Z,99632.70
2019-01-04T11:47:21.495Z,99628.67
2019-01-04T11:48:24.493Z,99620.05
2019-01-04T11:49:31.575Z,99620.05
2019-01-04T11:50:34.576Z,99612.69
2019-01-04T11:51:40.444Z,99612.69
2019-01-04T11:52:48.966Z,99630.19
2019-01-04T11:53:56.558Z,99631.66
2019-01-04T11:54:59.435Z,99625.78
2019-01-04T11:56:02.383Z,99628.22
2019-01-04T11:57:05.324Z,99628.22
2019-01-04T11:58:08.803Z,99616.20
2019-01-04T11:59:11.706Z,99616.20
2019-01-04T12:00:14.991Z,99609.98
2019-01-04T12:01:17.915Z,99612.80
2019-01-04T12:02:26.224Z,99612.80
2019-01-04T12:03:25.509Z,99617.89
2019-01-04T12:04:31.550Z,99619.53
2019-01-04T12:05:34.494Z,99619.53
2019-01-04T12:06:42.314Z,99617.59
2019-01-04T12:07:45.261Z,99611.19
2019-01-04T12:08:48.398Z,99606.11
2019-01-04T12:09:51.478Z,99602.47
2019-01-04T12:10:55.116Z,99604.67
2019-01-04T12:11:58.029Z,99605.57
2019-01-04T12:13:01.651Z,99603.06
2019-01-04T12:14:04.570Z,99602.23
2019-01-04T12:15:14.922Z,99608.70
2019-01-04T12:16:17.929Z,99619.53
2019-01-04T12:17:22.094Z,99619.53
2019-01-04T12:18:25.263Z,99609.55
2019-01-04T12:19:28.515Z,99616.31
2019-01-04T12:20:34.888Z,99617.02
2019-01-04T12:21:37.835Z,99614.84
2019-01-04T12:22:40.743Z,99614.84
2019-01-04T12:23:43.738Z,99607.56
2019-01-04T12:24:46.663Z,99612.40
2019-01-04T12:25:50.054Z,99612.40
2019-01-04T12:26:54.234Z,99603.11
2019-01-04T12:27:57.138Z,99603.11
2019-01-04T12:29:02.613Z,99609.38
2019-01-04T12:30:05.542Z,99618.83
2019-01-04T12:31:12.105Z,99614.91
2019-01-04T12:32:18.081Z,99614.91
2019-01-04T12:33:21.003Z,99614.43
2019-01-04T12:34:23.965Z,99614.43
2019-01-04T12:35:26.939Z,99617.36
2019-01-04T12:36:30.318Z,99610.41
2019-01-04T12:37:33.263Z,99611.45
2019-01-04T12:38:36.772Z,99612.49
2019-01-04T12:39:39.650Z,99618.70
2019-01-04T12:40:42.636Z,99616.41
2019-01-04T12:41:45.651Z,99615.91
2019-01-04T12:42:52.205Z,99611.69
2019-01-04T12:43:55.180Z,99609.11
2019-01-04T12:45:00.249Z,99608.02
2019-01-04T12:46:03.252Z,99602.83
2019-01-04T12:47:06.239Z,99592.08
2019-01-04T12:48:09.215Z,99592.08
2019-01-04T12:49:14.601Z,99585.42
2019-01-04T12:50:17.563Z,99579.02
2019-01-04T12:51:22.296Z,99581.14
2019-01-04T12:52:25.407Z,99566.77
2019-01-04T12:53:28.369Z,99566.77